sensor_id;sensor_type;location;lat;lon;timestamp;pressure;altitude;pressure_sealevel;temperature;humidity
7018;BME280;3549;42.162;24.726;2022-07-29T00:06:40;99170.88;;;23.55;62.11
7018;BME280;3549;42.162;24.726;2022-07-29T00:09:06;99255.56;;;24.06;62.26
7018;BME280;3549;42.162;24.726;2022-07-29T00:14:53;99169.22;;;23.49;62.63
7018;BME280;3549;42.162;24.726;2022-07-29T00:20:40;99246.25;;;23.95;62.41
7018;BME280;3549;42.162;24.726;2022-07-29T00:23:06;99240.34;;;23.82;63.39
7018;BME280;3549;42.162;24.726;2022-07-29T00:25:38;99090.63;;;22.91;63.65
7018;BME280;3549;42.162;24.726;2022-07-29T00:28:03;99289.97;;;24.15;63.57
7018;BME280;3549;42.162;24.726;2022-07-29T00:40:25;99294.34;;;24.06;65.65
7018;BME280;3549;42.162;24.726;2022-07-29T01:06:42;99260.19;;;23.80;67.70
7018;BME280;3549;42.162;24.726;2022-07-29T01:09:09;99299.63;;;24.00;67.81
7018;BME280;3549;42.162;24.726;2022-07-29T01:11:36;99297.81;;;24.12;67.28
7018;BME280;3549;42.162;24.726;2022-07-29T01:14:03;99295.25;;;24.05;68.37
7018;BME280;3549;42.162;24.726;2022-07-29T01:16:32;99295.34;;;23.98;68.52
7018;BME280;3549;42.162;24.726;2022-07-29T01:19:13;99307.31;;;24.03;69.03
7018;BME280;3549;42.162;24.726;2022-07-29T01:21:51;99262.88;;;23.71;70.13
7018;BME280;3549;42.162;24.726;2022-07-29T01:24:33;99304.84;;;23.97;69.90
7018;BME280;3549;42.162;24.726;2022-07-29T01:29:55;99235.66;;;23.41;70.94
7018;BME280;3549;42.162;24.726;2022-07-29T01:32:27;99271.13;;;23.20;70.06
7018;BME280;3549;42.162;24.726;2022-07-29T01:35:03;99252.50;;;22.84;70.76
7018;BME280;3549;42.162;24.726;2022-07-29T01:40:36;99288.66;;;22.81;71.24
7018;BME280;3549;42.162;24.726;2022-07-29T01:43:37;99274.13;;;22.70;70.93
7018;BME280;3549;42.162;24.726;2022-07-29T01:46:06;99220.19;;;22.26;71.93
7018;BME280;3549;42.162;24.726;2022-07-29T01:48:55;99264.78;;;22.46;72.33
7018;BME280;3549;42.162;24.726;2022-07-29T01:51:31;99249.47;;;22.20;73.01
7018;BME280;3549;42.162;24.726;2022-07-29T01:54:06;99279.56;;;22.21;75.99
7018;BME280;3549;42.162;24.726;2022-07-29T01:56:35;99234.22;;;21.57;81.20
7018;BME280;3549;42.162;24.726;2022-07-29T01:59:03;99284.78;;;22.00;79.83
7018;BME280;3549;42.162;24.726;2022-07-29T02:01:31;99137.31;;;21.18;78.76
7018;BME280;3549;42.162;24.726;2022-07-29T02:03:59;99277.91;;;22.04;77.98
7018;BME280;3549;42.162;24.726;2022-07-29T02:06:29;99282.16;;;22.15;76.78
7018;BME280;3549;42.162;24.726;2022-07-29T02:08:58;99254.78;;;21.80;77.01
7018;BME280;3549;42.162;24.726;2022-07-29T02:11:24;99272.81;;;21.73;77.05
7018;BME280;3549;42.162;24.726;2022-07-29T02:13:50;99260.00;;;21.49;77.80
7018;BME280;3549;42.162;24.726;2022-07-29T02:16:19;99246.28;;;21.44;78.20
7018;BME280;3549;42.162;24.726;2022-07-29T02:18:49;99207.72;;;21.18;78.76
7018;BME280;3549;42.162;24.726;2022-07-29T02:21:21;99263.41;;;21.72;77.23
7018;BME280;3549;42.162;24.726;2022-07-29T02:23:48;99271.97;;;21.77;78.08
7018;BME280;3549;42.162;24.726;2022-07-29T02:26:15;99204.22;;;21.41;78.55
7018;BME280;3549;42.162;24.726;2022-07-29T02:28:42;99208.50;;;21.46;79.27
7018;BME280;3549;42.162;24.726;2022-07-29T02:31:08;99242.78;;;21.69;78.92
7018;BME280;3549;42.162;24.726;2022-07-29T02:33:35;99219.69;;;21.38;79.50
7018;BME280;3549;42.162;24.726;2022-07-29T02:36:01;99235.16;;;21.36;79.98
7018;BME280;3549;42.162;24.726;2022-07-29T02:38:28;99215.41;;;21.29;80.90
7018;BME280;3549;42.162;24.726;2022-07-29T02:41:15;99173.41;;;20.83;80.18
7018;BME280;3549;42.162;24.726;2022-07-29T02:43:43;99260.03;;;21.42;79.71
7018;BME280;3549;42.162;24.726;2022-07-29T02:46:14;99270.31;;;21.43;80.35
7018;BME280;3549;42.162;24.726;2022-07-29T02:48:48;99260.94;;;21.20;84.87
7018;BME280;3549;42.162;24.726;2022-07-29T02:51:19;99206.84;;;20.94;87.44
7018;BME280;3549;42.162;24.726;2022-07-29T02:53:51;99257.47;;;21.24;91.01
7018;BME280;3549;42.162;24.726;2022-07-29T02:56:23;99245.50;;;21.15;90.95
7018;BME280;3549;42.162;24.726;2022-07-29T02:58:54;99237.75;;;21.21;89.08
7018;BME280;3549;42.162;24.726;2022-07-29T03:01:24;99246.31;;;20.99;90.72
7018;BME280;3549;42.162;24.726;2022-07-29T03:03:53;99260.06;;;20.95;94.35
7018;BME280;3549;42.162;24.726;2022-07-29T03:06:20;99100.53;;;19.99;94.49
7018;BME280;3549;42.162;24.726;2022-07-29T03:08:46;99110.81;;;20.24;90.61
7018;BME280;3549;42.162;24.726;2022-07-29T03:11:13;99206.84;;;20.57;88.08
7018;BME280;3549;42.162;24.726;2022-07-29T03:13:40;99260.06;;;20.98;86.46
7018;BME280;3549;42.162;24.726;2022-07-29T03:16:06;99258.31;;;20.88;85.99
7018;BME280;3549;42.162;24.726;2022-07-29T03:18:33;99271.22;;;21.07;86.57
7018;BME280;3549;42.162;24.726;2022-07-29T03:20:59;99139.97;;;20.21;86.35
7018;BME280;3549;42.162;24.726;2022-07-29T03:23:24;99271.22;;;20.89;87.31
7018;BME280;3549;42.162;24.726;2022-07-29T03:25:53;99254.91;;;20.84;85.87
7018;BME280;3549;42.162;24.726;2022-07-29T03:28:19;99274.66;;;20.93;85.19
7018;BME280;3549;42.162;24.726;2022-07-29T03:30:45;99277.19;;;20.78;86.66
7018;BME280;3549;42.162;24.726;2022-07-29T03:33:11;99283.19;;;20.68;89.67
7018;BME280;3549;42.162;24.726;2022-07-29T03:35:36;99238.56;;;20.29;93.84
7018;BME280;3549;42.162;24.726;2022-07-29T03:38:02;99151.81;;;19.72;100.00
7018;BME280;3549;42.162;24.726;2022-07-29T03:40:38;99289.16;;;20.48;100.00
7018;BME280;3549;42.162;24.726;2022-07-29T03:43:07;99290.81;;;20.31;100.00
7018;BME280;3549;42.162;24.726;2022-07-29T03:45:35;99286.44;;;20.17;100.00
7018;BME280;3549;42.162;24.726;2022-07-29T03:48:05;99271.97;;;20.26;100.00
7018;BME280;3549;42.162;24.726;2022-07-29T03:50:33;99274.59;;;20.53;100.00
7018;BME280;3549;42.162;24.726;2022-07-29T03:52:58;99286.66;;;20.85;100.00
7018;BME280;3549;42.162;24.726;2022-07-29T03:55:25;99294.38;;;20.79;100.00
7018;BME280;3549;42.162;24.726;2022-07-29T03:57:52;99236.88;;;20.77;100.00
7018;BME280;3549;42.162;24.726;2022-07-29T04:00:18;99127.94;;;20.13;100.00
7018;BME280;3549;42.162;24.726;2022-07-29T04:02:44;99298.69;;;21.16;100.00
7018;BME280;3549;42.162;24.726;2022-07-29T04:05:13;99301.25;;;21.22;100.00
7018;BME280;3549;42.162;24.726;2022-07-29T04:07:48;99302.06;;;20.74;100.00
7018;BME280;3549;42.162;24.726;2022-07-29T04:10:15;99305.47;;;20.61;100.00
7018;BME280;3549;42.162;24.726;2022-07-29T04:12:42;99308.03;;;20.58;100.00
7018;BME280;3549;42.162;24.726;2022-07-29T04:15:08;99259.06;;;20.16;100.00
7018;BME280;3549;42.162;24.726;2022-07-29T04:17:34;99304.59;;;20.60;100.00
7018;BME280;3549;42.162;24.726;2022-07-29T04:19:59;99102.97;;;19.54;100.00
7018;BME280;3549;42.162;24.726;2022-07-29T04:22:24;99268.56;;;20.42;100.00
7018;BME280;3549;42.162;24.726;2022-07-29T04:24:50;99187.06;;;20.16;100.00
7018;BME280;3549;42.162;24.726;2022-07-29T04:27:15;99123.63;;;19.95;100.00
7018;BME280;3549;42.162;24.726;2022-07-29T04:29:41;99265.19;;;20.96;100.00
7018;BME280;3549;42.162;24.726;2022-07-29T04:32:06;99277.22;;;21.22;100.00
7018;BME280;3549;42.162;24.726;2022-07-29T04:34:31;99302.06;;;20.94;100.00
7018;BME280;3549;42.162;24.726;2022-07-29T04:36:57;99273.75;;;20.60;100.00
7018;BME280;3549;42.162;24.726;2022-07-29T04:39:22;99299.53;;;21.03;100.00
7018;BME280;3549;42.162;24.726;2022-07-29T04:41:48;99305.56;;;21.11;100.00
7018;BME280;3549;42.162;24.726;2022-07-29T04:44:15;99311.56;;;21.31;100.00
7018;BME280;3549;42.162;24.726;2022-07-29T04:46:40;99313.25;;;21.41;100.00
7018;BME280;3549;42.162;24.726;2022-07-29T04:49:06;99318.34;;;21.79;100.00
7018;BME280;3549;42.162;24.726;2022-07-29T04:51:31;99322.69;;;21.63;100.00
7018;BME280;3549;42.162;24.726;2022-07-29T04:53:57;99312.41;;;21.47;100.00
7018;BME280;3549;42.162;24.726;2022-07-29T04:56:22;99321.84;;;21.46;100.00
7018;BME280;3549;42.162;24.726;2022-07-29T04:58:48;99319.28;;;21.48;100.00
7018;BME280;3549;42.162;24.726;2022-07-29T05:01:14;99319.22;;;21.67;100.00
7018;BME280;3549;42.162;24.726;2022-07-29T05:03:39;99299.44;;;21.91;98.34
7018;BME280;3549;42.162;24.726;2022-07-29T05:06:05;99330.16;;;22.45;93.26
7018;BME280;3549;42.162;24.726;2022-07-29T05:08:30;99307.69;;;22.61;90.96
7018;BME280;3549;42.162;24.726;2022-07-29T05:10:56;99276.06;;;22.30;92.81
7018;BME280;3549;42.162;24.726;2022-07-29T05:13:21;99330.66;;;23.05;88.24
7018;BME280;3549;42.162;24.726;2022-07-29T05:15:46;99336.50;;;23.31;84.29
7018;BME280;3549;42.162;24.726;2022-07-29T05:18:12;99326.94;;;23.43;78.50
7018;BME280;3549;42.162;24.726;2022-07-29T05:20:37;99227.41;;;23.00;72.64
7018;BME280;3549;42.162;24.726;2022-07-29T05:23:03;99331.78;;;23.74;72.03
7018;BME280;3549;42.162;24.726;2022-07-29T05:25:29;99338.41;;;24.00;69.71
7018;BME280;3549;42.162;24.726;2022-07-29T05:27:55;99336.81;;;23.89;70.07
7018;BME280;3549;42.162;24.726;2022-07-29T05:30:21;99194.34;;;23.35;68.97
7018;BME280;3549;42.162;24.726;2022-07-29T05:32:47;99180.03;;;23.03;68.38
7018;BME280;3549;42.162;24.726;2022-07-29T05:35:13;99266.81;;;23.23;69.81
7018;BME280;3549;42.162;24.726;2022-07-29T05:37:39;99196.19;;;23.23;68.02
7018;BME280;3549;42.162;24.726;2022-07-29T05:40:05;99336.78;;;23.92;68.48
7018;BME280;3549;42.162;24.726;2022-07-29T05:42:31;99337.34;;;24.23;67.54
7018;BME280;3549;42.162;24.726;2022-07-29T05:44:56;99332.50;;;24.59;66.02
7018;BME280;3549;42.162;24.726;2022-07-29T05:47:22;99338.19;;;24.87;64.95
7018;BME280;3549;42.162;24.726;2022-07-29T05:49:48;99337.00;;;25.09;63.94
7018;BME280;3549;42.162;24.726;2022-07-29T05:52:14;99262.66;;;24.58;62.89
7018;BME280;3549;42.162;24.726;2022-07-29T05:54:40;99347.31;;;25.12;63.63
7018;BME280;3549;42.162;24.726;2022-07-29T05:57:06;99238.44;;;24.59;63.27
7018;BME280;3549;42.162;24.726;2022-07-29T05:59:35;99347.00;;;25.32;63.29
7018;BME280;3549;42.162;24.726;2022-07-29T06:02:01;99295.09;;;25.34;62.69
7018;BME280;3549;42.162;24.726;2022-07-29T06:04:26;99271.78;;;25.34;62.37
7018;BME280;3549;42.162;24.726;2022-07-29T06:06:51;99247.47;;;25.41;62.12
7018;BME280;3549;42.162;24.726;2022-07-29T06:09:17;99250.91;;;25.41;62.17
7018;BME280;3549;42.162;24.726;2022-07-29T06:11:43;99237.91;;;24.95;63.21
7018;BME280;3549;42.162;24.726;2022-07-29T06:14:08;99360.22;;;25.67;63.34
7018;BME280;3549;42.162;24.726;2022-07-29T06:16:34;99210.00;;;25.11;61.73
7018;BME280;3549;42.162;24.726;2022-07-29T06:18:59;99357.78;;;26.04;61.64
7018;BME280;3549;42.162;24.726;2022-07-29T06:21:24;99316.31;;;26.03;61.22
7018;BME280;3549;42.162;24.726;2022-07-29T06:23:50;99327.53;;;25.57;62.82
7018;BME280;3549;42.162;24.726;2022-07-29T06:26:15;99329.38;;;25.52;62.78
7018;BME280;3549;42.162;24.726;2022-07-29T06:28:41;99347.28;;;26.13;61.49
7018;BME280;3549;42.162;24.726;2022-07-29T06:31:06;99302.97;;;26.22;60.46
7018;BME280;3549;42.162;24.726;2022-07-29T06:33:32;99315.91;;;26.64;58.49
7018;BME280;3549;42.162;24.726;2022-07-29T06:35:58;99069.63;;;25.34;57.31
7018;BME280;3549;42.162;24.726;2022-07-29T06:38:27;99351.31;;;27.06;56.31
7018;BME280;3549;42.162;24.726;2022-07-29T06:40:52;99200.69;;;26.31;55.94
7018;BME280;3549;42.162;24.726;2022-07-29T06:43:38;99349.19;;;27.23;55.74
7018;BME280;3549;42.162;24.726;2022-07-29T06:46:11;99346.03;;;27.46;55.03
7018;BME280;3549;42.162;24.726;2022-07-29T06:48:39;99272.25;;;27.15;55.28
7018;BME280;3549;42.162;24.726;2022-07-29T06:51:06;99348.41;;;27.87;54.46
7018;BME280;3549;42.162;24.726;2022-07-29T06:53:32;99306.13;;;27.47;54.62
7018;BME280;3549;42.162;24.726;2022-07-29T06:55:59;99261.69;;;26.88;56.43
7018;BME280;3549;42.162;24.726;2022-07-29T06:58:26;99203.00;;;26.80;55.17
7018;BME280;3549;42.162;24.726;2022-07-29T07:00:52;98898.47;;;25.00;55.02
7018;BME280;3549;42.162;24.726;2022-07-29T07:03:18;99187.41;;;26.43;55.87
7018;BME280;3549;42.162;24.726;2022-07-29T07:05:45;99228.09;;;26.43;56.82
7018;BME280;3549;42.162;24.726;2022-07-29T07:08:12;99309.13;;;26.57;56.84
7018;BME280;3549;42.162;24.726;2022-07-29T07:10:38;99338.44;;;27.37;55.83
7018;BME280;3549;42.162;24.726;2022-07-29T07:13:04;99266.19;;;27.49;53.49
7018;BME280;3549;42.162;24.726;2022-07-29T07:15:30;99291.34;;;27.81;52.79
7018;BME280;3549;42.162;24.726;2022-07-29T07:17:55;99209.41;;;27.64;51.40
7018;BME280;3549;42.162;24.726;2022-07-29T07:20:21;99084.66;;;25.96;53.92
7018;BME280;3549;42.162;24.726;2022-07-29T07:22:47;99266.69;;;26.96;54.30
7018;BME280;3549;42.162;24.726;2022-07-29T07:25:12;99169.75;;;26.92;52.11
7018;BME280;3549;42.162;24.726;2022-07-29T07:27:38;99199.00;;;27.65;50.86
7018;BME280;3549;42.162;24.726;2022-07-29T07:30:05;99192.91;;;27.94;50.80
7018;BME280;3549;42.162;24.726;2022-07-29T07:32:32;99324.63;;;28.89;49.74
7018;BME280;3549;42.162;24.726;2022-07-29T07:34:57;99331.47;;;29.19;48.91
7018;BME280;3549;42.162;24.726;2022-07-29T07:37:24;99333.22;;;29.18;48.44
7018;BME280;3549;42.162;24.726;2022-07-29T07:39:52;99330.19;;;29.32;48.11
7018;BME280;3549;42.162;24.726;2022-07-29T07:42:21;99187.03;;;28.72;47.20
7018;BME280;3549;42.162;24.726;2022-07-29T07:44:47;99313.22;;;29.45;48.14
7018;BME280;3549;42.162;24.726;2022-07-29T07:47:14;99286.34;;;29.17;46.96
7018;BME280;3549;42.162;24.726;2022-07-29T07:49:40;99208.53;;;29.05;46.67
7018;BME280;3549;42.162;24.726;2022-07-29T07:52:05;99329.47;;;29.79;46.61
7018;BME280;3549;42.162;24.726;2022-07-29T07:54:31;99322.59;;;29.75;46.86
7018;BME280;3549;42.162;24.726;2022-07-29T07:56:56;99271.09;;;29.56;45.71
7018;BME280;3549;42.162;24.726;2022-07-29T07:59:22;99083.81;;;28.68;43.92
7018;BME280;3549;42.162;24.726;2022-07-29T08:01:48;99252.47;;;30.36;42.88
7018;BME280;3549;42.162;24.726;2022-07-29T08:04:13;99322.44;;;30.96;41.36
7018;BME280;3549;42.162;24.726;2022-07-29T08:06:39;99286.66;;;30.53;40.73
7018;BME280;3549;42.162;24.726;2022-07-29T08:09:04;99272.97;;;30.47;41.50
7018;BME280;3549;42.162;24.726;2022-07-29T08:11:31;99265.69;;;30.55;41.41
7018;BME280;3549;42.162;24.726;2022-07-29T08:13:56;99299.88;;;30.93;40.71
7018;BME280;3549;42.162;24.726;2022-07-29T08:16:22;99293.38;;;31.04;40.77
7018;BME280;3549;42.162;24.726;2022-07-29T08:18:47;99244.19;;;30.70;40.15
7018;BME280;3549;42.162;24.726;2022-07-29T08:21:14;99315.81;;;31.51;38.43
7018;BME280;3549;42.162;24.726;2022-07-29T08:23:40;99323.50;;;31.34;39.86
7018;BME280;3549;42.162;24.726;2022-07-29T08:26:17;99302.13;;;31.65;38.19
7018;BME280;3549;42.162;24.726;2022-07-29T08:28:44;99289.16;;;31.82;38.08
7018;BME280;3549;42.162;24.726;2022-07-29T08:31:12;99328.34;;;32.03;37.17
7018;BME280;3549;42.162;24.726;2022-07-29T08:33:38;99292.50;;;31.45;36.30
7018;BME280;3549;42.162;24.726;2022-07-29T08:36:04;99290.94;;;31.61;36.42
7018;BME280;3549;42.162;24.726;2022-07-29T08:38:30;99321.94;;;31.70;36.28
7018;BME280;3549;42.162;24.726;2022-07-29T08:40:56;99289.50;;;31.74;36.94
7018;BME280;3549;42.162;24.726;2022-07-29T08:43:21;99184.25;;;31.66;35.65
7018;BME280;3549;42.162;24.726;2022-07-29T08:45:50;99215.91;;;31.99;34.43
7018;BME280;3549;42.162;24.726;2022-07-29T08:48:20;99302.66;;;32.11;34.10
7018;BME280;3549;42.162;24.726;2022-07-29T08:50:47;99302.88;;;32.44;33.65
7018;BME280;3549;42.162;24.726;2022-07-29T08:53:16;99292.56;;;32.41;34.43
7018;BME280;3549;42.162;24.726;2022-07-29T08:55:48;99295.41;;;32.55;33.01
7018;BME280;3549;42.162;24.726;2022-07-29T08:58:14;99297.09;;;32.38;32.76
7018;BME280;3549;42.162;24.726;2022-07-29T09:00:42;99195.00;;;31.60;33.62
7018;BME280;3549;42.162;24.726;2022-07-29T09:03:09;99292.97;;;32.32;33.72
7018;BME280;3549;42.162;24.726;2022-07-29T09:05:37;99161.50;;;32.05;32.64
7018;BME280;3549;42.162;24.726;2022-07-29T09:08:06;99288.47;;;32.90;31.86
7018;BME280;3549;42.162;24.726;2022-07-29T09:10:32;99252.56;;;32.74;32.39
7018;BME280;3549;42.162;24.726;2022-07-29T09:12:57;99287.53;;;33.10;31.56
7018;BME280;3549;42.162;24.726;2022-07-29T09:15:23;99265.41;;;32.61;31.74
7018;BME280;3549;42.162;24.726;2022-07-29T09:17:49;99227.44;;;32.87;31.91
7018;BME280;3549;42.162;24.726;2022-07-29T09:20:16;99280.41;;;33.12;31.69
7018;BME280;3549;42.162;24.726;2022-07-29T09:22:42;99254.75;;;33.00;31.38
7018;BME280;3549;42.162;24.726;2022-07-29T09:25:10;99247.91;;;33.14;31.57
7018;BME280;3549;42.162;24.726;2022-07-29T09:27:36;99158.41;;;32.50;30.96
7018;BME280;3549;42.162;24.726;2022-07-29T09:30:06;99277.00;;;33.27;31.10
7018;BME280;3549;42.162;24.726;2022-07-29T09:32:33;99281.88;;;33.17;31.32
7018;BME280;3549;42.162;24.726;2022-07-29T09:35:19;99265.84;;;33.05;31.20
7018;BME280;3549;42.162;24.726;2022-07-29T09:37:45;99267.13;;;32.43;32.17
7018;BME280;3549;42.162;24.726;2022-07-29T09:40:31;99265.41;;;32.80;32.42
7018;BME280;3549;42.162;24.726;2022-07-29T09:42:57;99269.66;;;32.63;32.92
7018;BME280;3549;42.162;24.726;2022-07-29T09:45:33;99264.63;;;32.59;32.96
7018;BME280;3549;42.162;24.726;2022-07-29T09:48:00;99270.84;;;32.75;32.52
7018;BME280;3549;42.162;24.726;2022-07-29T09:50:41;99269.00;;;32.94;31.44
7018;BME280;3549;42.162;24.726;2022-07-29T09:53:07;99218.41;;;32.92;31.13
7018;BME280;3549;42.162;24.726;2022-07-29T09:55:51;99255.19;;;33.27;30.93
7018;BME280;3549;42.162;24.726;2022-07-29T09:58:19;99236.16;;;33.04;31.95
7018;BME280;3549;42.162;24.726;2022-07-29T10:00:46;99215.34;;;33.18;31.85
7018;BME280;3549;42.162;24.726;2022-07-29T10:03:13;99205.66;;;33.53;31.63
7018;BME280;3549;42.162;24.726;2022-07-29T10:05:41;99223.00;;;33.23;30.06
7018;BME280;3549;42.162;24.726;2022-07-29T10:08:08;99256.53;;;33.68;29.79
7018;BME280;3549;42.162;24.726;2022-07-29T10:10:36;99241.72;;;32.98;30.23
7018;BME280;3549;42.162;24.726;2022-07-29T10:13:04;99251.91;;;32.87;30.42
7018;BME280;3549;42.162;24.726;2022-07-29T10:15:34;99244.69;;;33.09;30.38
7018;BME280;3549;42.162;24.726;2022-07-29T10:18:04;99244.19;;;33.01;30.95
7018;BME280;3549;42.162;24.726;2022-07-29T10:20:31;99244.56;;;32.77;30.99
7018;BME280;3549;42.162;24.726;2022-07-29T10:22:57;99223.19;;;32.84;31.48
7018;BME280;3549;42.162;24.726;2022-07-29T10:25:23;99181.63;;;33.11;31.13
7018;BME280;3549;42.162;24.726;2022-07-29T10:27:49;99239.84;;;33.52;30.03
7018;BME280;3549;42.162;24.726;2022-07-29T10:30:17;99234.75;;;33.49;29.95
7018;BME280;3549;42.162;24.726;2022-07-29T10:43:58;99162.03;;;33.18;30.13
7018;BME280;3549;42.162;24.726;2022-07-29T10:46:25;99231.97;;;33.69;30.45
7018;BME280;3549;42.162;24.726;2022-07-29T10:57:22;99201.44;;;33.16;31.28
7018;BME280;3549;42.162;24.726;2022-07-29T11:05:20;99180.78;;;33.60;31.13
7018;BME280;3549;42.162;24.726;2022-07-29T11:10:39;99197.84;;;33.84;29.96
7018;BME280;3549;42.162;24.726;2022-07-29T11:13:05;99151.25;;;33.40;30.37
7018;BME280;3549;42.162;24.726;2022-07-29T11:15:54;99194.84;;;33.42;31.47
7018;BME280;3549;42.162;24.726;2022-07-29T11:18:20;99165.28;;;33.39;31.21
7018;BME280;3549;42.162;24.726;2022-07-29T11:20:47;99018.41;;;32.20;32.04
7018;BME280;3549;42.162;24.726;2022-07-29T11:25:43;99175.16;;;33.51;31.00
7018;BME280;3549;42.162;24.726;2022-07-29T11:28:13;99170.09;;;33.63;31.50
7018;BME280;3549;42.162;24.726;2022-07-29T11:33:31;99121.16;;;34.25;30.46
7018;BME280;3549;42.162;24.726;2022-07-29T11:36:10;99166.34;;;35.07;29.61
7018;BME280;3549;42.162;24.726;2022-07-29T11:38:36;99114.41;;;34.80;30.74
7018;BME280;3549;42.162;24.726;2022-07-29T11:41:26;99160.81;;;35.53;29.84
7018;BME280;3549;42.162;24.726;2022-07-29T11:43:58;99166.81;;;36.12;30.03
7018;BME280;3549;42.162;24.726;2022-07-29T11:49:08;99156.91;;;36.42;28.54
7018;BME280;3549;42.162;24.726;2022-07-29T11:51:38;99158.88;;;37.05;27.97
7018;BME280;3549;42.162;24.726;2022-07-29T11:54:05;99132.97;;;37.35;27.55
7018;BME280;3549;42.162;24.726;2022-07-29T11:56:34;99100.66;;;37.19;27.39
7018;BME280;3549;42.162;24.726;2022-07-29T11:59:07;99141.72;;;36.85;27.34
7018;BME280;3549;42.162;24.726;2022-07-29T12:01:34;99156.53;;;37.25;28.02
7018;BME280;3549;42.162;24.726;2022-07-29T12:04:06;99014.19;;;36.72;27.21
7018;BME280;3549;42.162;24.726;2022-07-29T12:06:34;99147.81;;;38.23;26.79
7018;BME280;3549;42.162;24.726;2022-07-29T12:09:00;99148.31;;;38.04;26.50
7018;BME280;3549;42.162;24.726;2022-07-29T12:11:31;99130.34;;;37.97;25.97
7018;BME280;3549;42.162;24.726;2022-07-29T12:13:56;99125.28;;;37.45;25.17
7018;BME280;3549;42.162;24.726;2022-07-29T12:16:22;99143.84;;;38.05;25.67
7018;BME280;3549;42.162;24.726;2022-07-29T12:18:59;99144.31;;;37.99;25.65
7018;BME280;3549;42.162;24.726;2022-07-29T12:21:25;99152.34;;;38.68;24.73
7018;BME280;3549;42.162;24.726;2022-07-29T12:23:55;99143.66;;;39.12;24.99
7018;BME280;3549;42.162;24.726;2022-07-29T12:26:21;99110.25;;;39.22;24.63
7018;BME280;3549;42.162;24.726;2022-07-29T12:28:46;99107.84;;;39.75;24.20
7018;BME280;3549;42.162;24.726;2022-07-29T12:31:15;99147.84;;;39.38;23.90
7018;BME280;3549;42.162;24.726;2022-07-29T12:33:41;99136.84;;;39.32;24.34
7018;BME280;3549;42.162;24.726;2022-07-29T12:36:07;99124.63;;;40.39;23.56
7018;BME280;3549;42.162;24.726;2022-07-29T12:38:34;98981.97;;;40.31;22.49
7018;BME280;3549;42.162;24.726;2022-07-29T12:41:00;99142.50;;;41.70;22.62
7018;BME280;3549;42.162;24.726;2022-07-29T12:43:26;99039.84;;;40.37;22.93
7018;BME280;3549;42.162;24.726;2022-07-29T12:45:54;99123.41;;;40.54;23.80
7018;BME280;3549;42.162;24.726;2022-07-29T12:48:34;99128.63;;;41.57;23.09
7018;BME280;3549;42.162;24.726;2022-07-29T12:51:02;99065.72;;;40.45;23.14
7018;BME280;3549;42.162;24.726;2022-07-29T12:53:28;99110.75;;;40.15;24.00
7018;BME280;3549;42.162;24.726;2022-07-29T12:55:56;99109.78;;;40.89;23.98
7018;BME280;3549;42.162;24.726;2022-07-29T12:58:36;99106.16;;;40.48;23.59
7018;BME280;3549;42.162;24.726;2022-07-29T13:03:55;99081.47;;;40.57;23.18
7018;BME280;3549;42.162;24.726;2022-07-29T13:06:43;99070.66;;;40.91;22.54
7018;BME280;3549;42.162;24.726;2022-07-29T13:11:46;99103.22;;;41.13;23.08
7018;BME280;3549;42.162;24.726;2022-07-29T13:14:33;99048.84;;;40.46;24.09
7018;BME280;3549;42.162;24.726;2022-07-29T13:17:04;99075.25;;;39.84;24.22
7018;BME280;3549;42.162;24.726;2022-07-29T13:22:02;99065.00;;;41.05;23.35
7018;BME280;3549;42.162;24.726;2022-07-29T13:24:27;99085.88;;;41.99;23.14
7018;BME280;3549;42.162;24.726;2022-07-29T13:26:53;99031.06;;;41.67;22.33
7018;BME280;3549;42.162;24.726;2022-07-29T13:29:18;99081.13;;;41.83;23.05
7018;BME280;3549;42.162;24.726;2022-07-29T13:31:44;99039.91;;;41.68;22.68
7018;BME280;3549;42.162;24.726;2022-07-29T13:34:09;99031.72;;;42.19;22.05
7018;BME280;3549;42.162;24.726;2022-07-29T13:36:34;99076.97;;;41.60;22.92
7018;BME280;3549;42.162;24.726;2022-07-29T13:39:00;99038.16;;;42.36;21.97
7018;BME280;3549;42.162;24.726;2022-07-29T13:41:28;99080.50;;;43.04;21.65
7018;BME280;3549;42.162;24.726;2022-07-29T13:43:53;99008.84;;;42.07;22.54
7018;BME280;3549;42.162;24.726;2022-07-29T13:46:18;99057.78;;;41.47;23.34
7018;BME280;3549;42.162;24.726;2022-07-29T13:48:44;99062.63;;;42.01;22.58
7018;BME280;3549;42.162;24.726;2022-07-29T13:51:09;99017.53;;;42.57;21.94
7018;BME280;3549;42.162;24.726;2022-07-29T13:53:35;99052.38;;;43.46;21.16
7018;BME280;3549;42.162;24.726;2022-07-29T13:56:00;99059.97;;;43.69;21.30
7018;BME280;3549;42.162;24.726;2022-07-29T13:58:26;99058.56;;;42.64;21.64
7018;BME280;3549;42.162;24.726;2022-07-29T14:00:51;98995.06;;;42.69;21.55
7018;BME280;3549;42.162;24.726;2022-07-29T14:03:17;98959.38;;;42.43;21.83
7018;BME280;3549;42.162;24.726;2022-07-29T14:05:42;99038.16;;;43.28;21.29
7018;BME280;3549;42.162;24.726;2022-07-29T14:08:07;99045.47;;;43.81;20.74
7018;BME280;3549;42.162;24.726;2022-07-29T14:10:33;99027.94;;;43.69;20.97
7018;BME280;3549;42.162;24.726;2022-07-29T14:12:59;98922.19;;;43.32;20.88
7018;BME280;3549;42.162;24.726;2022-07-29T14:15:24;98955.69;;;43.44;21.22
7018;BME280;3549;42.162;24.726;2022-07-29T14:17:50;99047.16;;;44.17;20.66
7018;BME280;3549;42.162;24.726;2022-07-29T14:20:15;99010.88;;;44.32;20.58
7018;BME280;3549;42.162;24.726;2022-07-29T14:22:41;99058.00;;;45.52;19.76
7018;BME280;3549;42.162;24.726;2022-07-29T14:25:07;99058.03;;;44.67;19.62
7018;BME280;3549;42.162;24.726;2022-07-29T14:27:33;99031.81;;;44.19;19.83
7018;BME280;3549;42.162;24.726;2022-07-29T14:29:58;99051.28;;;44.81;19.79
7018;BME280;3549;42.162;24.726;2022-07-29T14:32:24;99020.88;;;43.05;20.72
7018;BME280;3549;42.162;24.726;2022-07-29T14:34:49;99049.91;;;44.25;20.50
7018;BME280;3549;42.162;24.726;2022-07-29T14:37:14;99017.09;;;41.56;22.65
7018;BME280;3549;42.162;24.726;2022-07-29T14:39:40;99045.75;;;39.77;24.30
7018;BME280;3549;42.162;24.726;2022-07-29T14:42:06;98948.31;;;37.79;25.66
7018;BME280;3549;42.162;24.726;2022-07-29T14:44:33;99033.09;;;37.40;25.82
7018;BME280;3549;42.162;24.726;2022-07-29T14:46:59;99000.13;;;36.84;26.15
7018;BME280;3549;42.162;24.726;2022-07-29T14:49:25;98989.91;;;36.67;26.62